createdAt,value
2018-07-22T00:00:35.002Z,2.30
2018-07-22T00:03:03.354Z,2.60
2018-07-22T00:05:31.787Z,3.07
2018-07-22T00:08:00.156Z,2.43
2018-07-22T00:10:29.772Z,2.20
2018-07-22T00:12:59.036Z,3.03
2018-07-22T00:15:27.155Z,2.50
2018-07-22T00:17:57.612Z,2.47
2018-07-22T00:20:26.901Z,2.13
2018-07-22T00:22:55.910Z,2.80
2018-07-22T00:25:24.450Z,2.00
2018-07-22T00:27:53.380Z,2.50
2018-07-22T00:30:22.477Z,2.37
2018-07-22T00:32:50.840Z,2.27
2018-07-22T00:35:19.200Z,2.30
2018-07-22T00:37:47.538Z,2.63
2018-07-22T00:40:15.888Z,2.63
2018-07-22T00:42:44.547Z,2.60
2018-07-22T00:45:14.157Z,2.90
2018-07-22T00:47:43.248Z,2.70
2018-07-22T00:50:12.236Z,2.87
2018-07-22T00:52:40.676Z,3.40
2018-07-22T00:55:08.784Z,2.90
2018-07-22T00:57:37.128Z,2.70
2018-07-22T01:00:06.101Z,3.27
2018-07-22T01:02:34.413Z,3.17
2018-07-22T01:05:02.775Z,3.37
2018-07-22T01:07:31.245Z,3.13
2018-07-22T01:09:59.608Z,3.50
2018-07-22T01:12:27.945Z,3.13
2018-07-22T01:14:56.279Z,3.00
2018-07-22T01:17:24.966Z,2.77
2018-07-22T01:19:53.042Z,3.13
2018-07-22T01:22:21.623Z,3.37
2018-07-22T01:24:49.823Z,3.00
2018-07-22T01:27:18.395Z,2.90
2018-07-22T01:29:46.744Z,2.83
2018-07-22T01:32:15.313Z,2.50
2018-07-22T01:34:43.669Z,2.93
2018-07-22T01:37:12.021Z,2.87
2018-07-22T01:39:40.716Z,3.17
2018-07-22T01:42:09.060Z,2.90
2018-07-22T01:44:37.718Z,2.77
2018-07-22T01:47:06.099Z,3.87
2018-07-22T01:49:34.444Z,2.80
2018-07-22T01:52:03.016Z,3.50
2018-07-22T01:54:31.380Z,2.70
2018-07-22T01:56:59.716Z,2.63
2018-07-22T01:59:28.092Z,3.27
2018-07-22T02:01:56.784Z,3.47
2018-07-22T02:04:25.738Z,3.70
2018-07-22T02:06:54.642Z,3.63
2018-07-22T02:09:23.024Z,3.27
2018-07-22T02:11:51.367Z,4.87
2018-07-22T02:14:19.721Z,3.30
2018-07-22T02:16:48.551Z,4.20
2018-07-22T02:19:16.888Z,4.60
2018-07-22T02:21:45.244Z,3.57
2018-07-22T02:24:13.604Z,4.47
2018-07-22T02:26:41.936Z,4.20
2018-07-22T02:29:10.020Z,4.33
2018-07-22T02:31:38.560Z,4.40
2018-07-22T02:34:07.420Z,4.43
2018-07-22T02:36:36.133Z,4.90
2018-07-22T02:39:07.700Z,4.30
2018-07-22T02:41:36.128Z,4.30
2018-07-22T02:44:05.559Z,4.53
2018-07-22T02:46:34.662Z,5.10
2018-07-22T02:49:03.040Z,5.27
2018-07-22T02:51:31.532Z,4.83
2018-07-22T02:53:59.836Z,5.03
2018-07-22T02:56:27.919Z,6.50
2018-07-22T02:58:56.264Z,5.00
2018-07-22T03:01:24.800Z,5.23
2018-07-22T03:03:53.504Z,6.50
2018-07-22T03:06:22.192Z,5.60
2018-07-22T03:08:51.200Z,5.50
2018-07-22T03:11:19.544Z,7.23
2018-07-22T03:13:47.901Z,5.27
2018-07-22T03:16:15.988Z,7.20
2018-07-22T03:18:44.421Z,6.80
2018-07-22T03:21:13.511Z,8.30
2018-07-22T03:23:41.880Z,8.67
2018-07-22T03:26:10.380Z,8.07
2018-07-22T03:28:38.712Z,6.70
2018-07-22T03:31:07.413Z,6.90
2018-07-22T03:33:35.871Z,7.40
2018-07-22T03:36:04.200Z,7.67
2018-07-22T03:38:32.545Z,7.73
2018-07-22T03:41:01.140Z,8.93
2018-07-22T03:43:29.491Z,9.77
2018-07-22T03:45:57.819Z,8.97
2018-07-22T03:48:26.188Z,8.00
2018-07-22T03:50:54.545Z,10.20
2018-07-22T03:53:22.892Z,12.13
2018-07-22T03:55:51.665Z,8.33
2018-07-22T03:58:20.156Z,9.50
2018-07-22T04:00:48.924Z,9.23
2018-07-22T04:03:17.345Z,10.23
2018-07-22T04:05:45.801Z,9.37
2018-07-22T04:08:14.435Z,11.77
2018-07-22T04:10:42.808Z,9.60
2018-07-22T04:13:11.151Z,8.20
2018-07-22T04:15:39.216Z,12.27
2018-07-22T04:18:07.345Z,8.97
2018-07-22T04:20:35.699Z,11.30
2018-07-22T04:23:04.603Z,14.57
2018-07-22T04:25:32.963Z,12.47
2018-07-22T04:28:01.357Z,12.53
2018-07-22T04:30:29.968Z,11.70
2018-07-22T04:32:58.339Z,10.80
2018-07-22T04:35:26.863Z,10.60
2018-07-22T04:37:55.228Z,13.47
2018-07-22T04:40:23.609Z,13.30
2018-07-22T04:42:51.976Z,15.10
2018-07-22T04:45:20.732Z,13.90
2018-07-22T04:47:49.774Z,13.10
2018-07-22T04:50:18.154Z,15.17
2018-07-22T04:52:46.263Z,14.83
2018-07-22T04:55:14.779Z,13.60
2018-07-22T04:57:43.241Z,22.67
2018-07-22T05:00:11.618Z,15.03
2018-07-22T05:02:39.960Z,17.27
2018-07-22T05:05:08.019Z,24.67
2018-07-22T05:07:36.662Z,20.80
2018-07-22T05:10:05.039Z,25.60
2018-07-22T05:12:33.414Z,23.80
2018-07-22T05:15:01.948Z,24.90
2018-07-22T05:17:30.045Z,22.37
2018-07-22T05:19:58.391Z,24.07
2018-07-22T05:22:26.748Z,24.10
2018-07-22T05:24:55.340Z,24.23
2018-07-22T05:27:23.993Z,23.60
2018-07-22T05:29:52.337Z,23.97
2018-07-22T05:32:21.217Z,23.10
2018-07-22T05:34:49.303Z,22.47
2018-07-22T05:37:17.844Z,23.93
2018-07-22T05:39:46.208Z,23.87
2018-07-22T05:42:14.693Z,25.30
2018-07-22T05:44:43.909Z,25.90
2018-07-22T05:47:12.867Z,24.23
2018-07-22T05:49:41.196Z,24.63
2018-07-22T05:52:09.528Z,25.87
2018-07-22T05:54:37.880Z,24.00
2018-07-22T05:57:07.128Z,24.00
2018-07-22T05:59:35.484Z,24.10
2018-07-22T06:02:03.864Z,23.97
2018-07-22T06:04:32.187Z,23.93
2018-07-22T06:07:00.560Z,26.10
2018-07-22T06:09:29.327Z,22.60
2018-07-22T06:11:58.133Z,22.13
2018-07-22T06:14:26.681Z,20.80
2018-07-22T06:16:55.904Z,20.40
2018-07-22T06:19:24.308Z,18.73
2018-07-22T06:21:52.382Z,19.57
2018-07-22T06:24:20.503Z,19.80
2018-07-22T06:26:48.944Z,18.40
2018-07-22T06:29:17.318Z,14.33
2018-07-22T06:31:45.535Z,13.33
2018-07-22T06:34:14.534Z,17.03
2018-07-22T06:36:49.496Z,12.50
2018-07-22T06:39:18.258Z,14.80
2018-07-22T06:41:46.605Z,15.00
2018-07-22T06:44:14.976Z,17.20
2018-07-22T06:46:43.371Z,14.03
2018-07-22T06:49:11.664Z,13.70
2018-07-22T06:51:40.092Z,11.77
2018-07-22T06:54:08.659Z,10.13
2018-07-22T06:56:37.459Z,9.83
2018-07-22T06:59:06.241Z,9.70
2018-07-22T07:01:34.601Z,10.33
2018-07-22T07:04:03.248Z,9.53
2018-07-22T07:06:32.100Z,9.00
2018-07-22T07:09:00.187Z,9.10
2018-07-22T07:11:28.508Z,7.37
2018-07-22T07:13:57.310Z,7.03
2018-07-22T07:16:25.439Z,7.37
2018-07-22T07:18:53.797Z,6.57
2018-07-22T07:21:22.262Z,6.20
2018-07-22T07:23:51.236Z,6.50
2018-07-22T07:26:20.730Z,7.50
2018-07-22T07:28:49.496Z,6.97
2018-07-22T07:31:17.836Z,6.33
2018-07-22T07:33:46.722Z,7.73
2018-07-22T07:36:14.829Z,7.87
2018-07-22T07:38:43.340Z,7.07
2018-07-22T07:41:11.844Z,7.20
2018-07-22T07:43:40.514Z,6.13
2018-07-22T07:46:09.354Z,7.47
2018-07-22T07:48:37.828Z,6.67
2018-07-22T07:51:06.223Z,9.37
2018-07-22T07:53:34.407Z,7.93
2018-07-22T07:56:02.747Z,7.13
2018-07-22T07:58:31.116Z,6.10
2018-07-22T08:00:59.594Z,7.00
2018-07-22T08:03:28.563Z,6.40
2018-07-22T08:05:59.504Z,6.50
2018-07-22T08:08:27.946Z,6.50
2018-07-22T08:10:56.668Z,6.60
2018-07-22T08:13:28.318Z,5.47
2018-07-22T08:15:57.196Z,5.30
2018-07-22T08:18:26.287Z,5.07
2018-07-22T08:20:55.681Z,5.37
2018-07-22T08:23:24.387Z,5.10
2018-07-22T08:26:18.124Z,5.47
2018-07-22T08:29:23.539Z,4.57
2018-07-22T08:31:52.205Z,5.40
2018-07-22T08:34:20.848Z,3.80
2018-07-22T08:36:49.428Z,5.00
2018-07-22T08:39:19.729Z,3.73
2018-07-22T08:41:48.748Z,4.60
2018-07-22T08:44:16.874Z,3.53
2018-07-22T08:46:45.562Z,4.40
2018-07-22T08:49:14.227Z,4.13
2018-07-22T08:51:42.694Z,3.73
2018-07-22T08:54:11.068Z,3.53
2018-07-22T08:56:39.181Z,3.90
2018-07-22T08:59:07.888Z,3.93
2018-07-22T09:01:36.256Z,3.80
2018-07-22T09:04:05.009Z,3.67
2018-07-22T09:06:33.380Z,4.30
2018-07-22T09:09:02.122Z,3.87
2018-07-22T09:11:30.488Z,3.70
2018-07-22T09:13:59.267Z,4.00
2018-07-22T09:16:28.186Z,4.10
2018-07-22T09:18:57.062Z,3.20
2018-07-22T09:21:25.852Z,3.87
2018-07-22T09:23:54.560Z,4.43
2018-07-22T09:26:23.061Z,4.60
2018-07-22T09:28:51.526Z,4.30
2018-07-22T09:31:21.524Z,4.20
2018-07-22T09:33:50.387Z,4.07
2018-07-22T09:36:19.227Z,4.17
2018-07-22T09:38:47.502Z,5.30
2018-07-22T09:41:16.256Z,3.50
2018-07-22T09:43:45.042Z,4.30
2018-07-22T09:46:13.728Z,4.17
2018-07-22T09:48:42.609Z,5.53
2018-07-22T09:51:11.414Z,4.50
2018-07-22T09:53:39.985Z,4.90
2018-07-22T09:56:08.974Z,4.80
2018-07-22T09:58:37.461Z,4.60
2018-07-22T10:01:06.465Z,4.83
2018-07-22T10:03:35.634Z,5.33
2018-07-22T10:06:04.454Z,5.33
2018-07-22T10:08:33.252Z,6.20
2018-07-22T10:11:02.598Z,7.00
2018-07-22T10:13:31.530Z,5.70
2018-07-22T10:16:00.407Z,6.43
2018-07-22T10:18:29.156Z,6.30
2018-07-22T10:20:58.030Z,5.87
2018-07-22T10:23:26.825Z,5.53
2018-07-22T10:25:55.510Z,5.33
2018-07-22T10:28:24.456Z,5.47
2018-07-22T10:30:53.251Z,5.50
2018-07-22T10:33:21.915Z,5.13
2018-07-22T10:35:50.850Z,5.40
2018-07-22T10:38:19.287Z,5.30
2018-07-22T10:40:48.075Z,5.50
2018-07-22T10:43:17.004Z,5.00
2018-07-22T10:45:45.721Z,5.07
2018-07-22T10:48:14.505Z,5.30
2018-07-22T10:50:43.597Z,5.20
2018-07-22T10:53:12.287Z,4.23
2018-07-22T10:55:41.568Z,4.90
2018-07-22T10:58:10.635Z,5.43
2018-07-22T11:00:39.298Z,6.17
2018-07-22T11:03:08.804Z,5.60
2018-07-22T11:05:37.480Z,5.20
2018-07-22T11:08:05.548Z,5.63
2018-07-22T11:10:34.194Z,5.10
2018-07-22T11:13:02.901Z,5.10
2018-07-22T11:15:31.699Z,4.53
2018-07-22T11:18:01.196Z,4.83
2018-07-22T11:20:29.463Z,4.73
2018-07-22T11:22:58.753Z,4.57
2018-07-22T11:25:27.707Z,5.20
2018-07-22T11:27:56.604Z,5.77
2018-07-22T11:30:25.669Z,5.43
2018-07-22T11:32:54.293Z,5.10
2018-07-22T11:35:23.296Z,4.83
2018-07-22T11:37:52.196Z,5.13
2018-07-22T11:40:21.311Z,5.00
2018-07-22T11:42:49.754Z,5.60
2018-07-22T11:45:18.559Z,5.47
2018-07-22T11:47:47.564Z,5.67
2018-07-22T11:50:16.485Z,5.33
2018-07-22T11:52:44.867Z,5.60
2018-07-22T11:55:13.634Z,5.90
2018-07-22T11:57:42.246Z,5.50
2018-07-22T12:00:17.672Z,5.20
2018-07-22T12:02:45.879Z,5.47
2018-07-22T12:05:14.500Z,5.47
2018-07-22T12:07:43.085Z,5.40
2018-07-22T12:10:11.869Z,6.53
2018-07-22T12:12:40.473Z,6.10
2018-07-22T12:15:09.230Z,5.60
2018-07-22T12:17:37.871Z,5.73
2018-07-22T12:20:06.882Z,5.73
2018-07-22T12:22:35.523Z,5.47
2018-07-22T12:25:04.180Z,6.13
2018-07-22T12:27:32.721Z,6.20
2018-07-22T12:30:01.425Z,5.80
2018-07-22T12:32:30.233Z,6.30
2018-07-22T12:34:59.311Z,5.40
2018-07-22T12:37:27.896Z,6.37
2018-07-22T12:39:56.696Z,6.17
2018-07-22T12:42:25.252Z,7.07
2018-07-22T12:44:53.710Z,6.73
2018-07-22T12:47:22.463Z,6.40
2018-07-22T12:49:50.980Z,7.07
2018-07-22T12:52:19.759Z,7.33
2018-07-22T12:54:48.393Z,6.27
2018-07-22T12:57:23.200Z,6.93
2018-07-22T12:59:51.367Z,5.83
2018-07-22T13:02:19.662Z,6.20
2018-07-22T13:04:48.068Z,7.00
2018-07-22T13:07:16.803Z,6.67
2018-07-22T13:09:45.544Z,6.23
2018-07-22T13:12:14.298Z,7.23
2018-07-22T13:14:42.997Z,6.63
2018-07-22T13:17:11.980Z,6.40
2018-07-22T13:19:41.177Z,6.20
2018-07-22T13:22:10.181Z,7.63
2018-07-22T13:24:38.524Z,7.07
2018-07-22T13:27:06.886Z,6.80
2018-07-22T13:29:35.356Z,7.37
2018-07-22T13:32:04.180Z,6.70
2018-07-22T13:34:32.520Z,6.93
2018-07-22T13:37:00.895Z,6.20
2018-07-22T13:39:29.612Z,5.93
2018-07-22T13:41:57.945Z,5.90
2018-07-22T13:44:26.314Z,7.17
2018-07-22T13:46:54.676Z,7.00
2018-07-22T13:49:23.292Z,7.30
2018-07-22T13:51:51.654Z,7.50
2018-07-22T13:54:20.087Z,7.10
2018-07-22T13:56:48.620Z,7.70
2018-07-22T13:59:17.352Z,7.30
2018-07-22T14:01:45.702Z,7.17
2018-07-22T14:04:14.080Z,7.27
2018-07-22T14:06:42.832Z,6.63
2018-07-22T14:09:12.123Z,7.13
2018-07-22T14:11:40.720Z,8.30
2018-07-22T14:14:09.852Z,6.73
2018-07-22T14:16:38.320Z,7.13
2018-07-22T14:19:06.828Z,6.73
2018-07-22T14:21:35.168Z,6.30
2018-07-22T14:24:03.512Z,6.47
2018-07-22T14:26:31.882Z,6.50
2018-07-22T14:29:00.227Z,7.27
2018-07-22T14:31:28.604Z,7.30
2018-07-22T14:33:56.995Z,7.70
2018-07-22T14:36:25.603Z,7.93
2018-07-22T14:38:54.393Z,6.90
2018-07-22T14:41:23.854Z,7.57
2018-07-22T14:43:52.268Z,8.20
2018-07-22T14:46:21.084Z,8.93
2018-07-22T14:48:49.198Z,8.20
2018-07-22T14:51:17.856Z,8.83
2018-07-22T14:53:46.284Z,9.60
2018-07-22T14:56:14.619Z,9.73
2018-07-22T14:58:42.972Z,10.70
2018-07-22T15:01:13.204Z,11.00
2018-07-22T15:03:42.183Z,11.17
2018-07-22T15:06:10.599Z,10.73
2018-07-22T15:08:38.928Z,12.53
2018-07-22T15:11:07.827Z,11.80
2018-07-22T15:13:36.306Z,11.60
2018-07-22T15:16:05.292Z,11.77
2018-07-22T15:18:34.344Z,11.90
2018-07-22T15:21:02.827Z,10.87
2018-07-22T15:23:31.749Z,11.07
2018-07-22T15:26:00.112Z,10.47
2018-07-22T15:28:28.456Z,12.07
2018-07-22T15:30:56.803Z,10.43
2018-07-22T15:35:59.680Z,11.43
2018-07-22T15:38:28.356Z,10.67
2018-07-22T15:40:56.772Z,12.23
2018-07-22T15:43:25.324Z,11.60
2018-07-22T15:45:53.683Z,10.70
2018-07-22T15:48:22.016Z,9.53
2018-07-22T15:50:50.484Z,10.60
2018-07-22T15:53:18.732Z,9.80
2018-07-22T15:55:47.397Z,10.83
2018-07-22T15:58:15.744Z,10.60
2018-07-22T16:00:44.074Z,10.30
2018-07-22T16:03:12.432Z,9.33
2018-07-22T16:05:40.760Z,9.27
2018-07-22T16:08:09.114Z,9.93
2018-07-22T16:10:37.479Z,7.07
2018-07-22T16:13:05.822Z,7.70
2018-07-22T16:15:33.934Z,6.40
2018-07-22T16:18:02.272Z,6.40
2018-07-22T16:20:30.334Z,6.10
2018-07-22T16:22:58.666Z,5.70
2018-07-22T16:25:27.068Z,6.40
2018-07-22T16:27:55.470Z,5.10
2018-07-22T16:30:24.289Z,5.60
2018-07-22T16:32:52.723Z,5.70
2018-07-22T16:35:21.092Z,5.50
2018-07-22T16:37:49.412Z,5.03
2018-07-22T16:40:17.487Z,4.70
2018-07-22T16:42:45.546Z,3.10
2018-07-22T16:45:14.068Z,3.83
2018-07-22T16:47:42.572Z,3.10
2018-07-22T16:50:10.726Z,4.10
2018-07-22T16:52:39.208Z,3.27
2018-07-22T16:55:07.540Z,3.00
2018-07-22T16:57:36.096Z,3.10
2018-07-22T17:00:04.592Z,2.73
2018-07-22T17:02:33.371Z,2.90
2018-07-22T17:05:01.741Z,2.93
2018-07-22T17:07:30.208Z,3.10
2018-07-22T17:09:58.538Z,3.13
2018-07-22T17:12:26.868Z,3.63
2018-07-22T17:14:55.519Z,3.50
2018-07-22T17:17:23.876Z,2.73
2018-07-22T17:19:52.251Z,3.30
2018-07-22T17:22:21.139Z,2.80
2018-07-22T17:24:49.756Z,3.37
2018-07-22T17:27:18.405Z,3.97
2018-07-22T17:29:47.016Z,3.40
2018-07-22T17:32:15.756Z,3.10
2018-07-22T17:34:44.136Z,3.43
2018-07-22T17:37:12.456Z,4.17
2018-07-22T17:39:40.516Z,2.70
2018-07-22T17:42:08.807Z,2.80
2018-07-22T17:44:37.455Z,3.20
2018-07-22T17:47:05.863Z,3.47
2018-07-22T17:49:33.947Z,3.47
2018-07-22T17:52:02.278Z,3.30
2018-07-22T17:54:30.642Z,3.23
2018-07-22T17:56:59.516Z,3.37
2018-07-22T17:59:27.881Z,3.33
2018-07-22T18:01:56.236Z,3.03
2018-07-22T18:04:24.766Z,3.80
2018-07-22T18:06:53.371Z,3.37
2018-07-22T18:09:21.957Z,2.87
2018-07-22T18:11:50.480Z,3.10
2018-07-22T18:14:18.644Z,3.70
2018-07-22T18:16:46.905Z,3.57
2018-07-22T18:19:15.220Z,3.90
2018-07-22T18:21:43.667Z,2.67
2018-07-22T18:24:12.224Z,2.60
2018-07-22T18:26:40.826Z,3.23
2018-07-22T18:29:09.220Z,3.40
2018-07-22T18:31:38.188Z,3.30
2018-07-22T18:34:06.553Z,2.87
2018-07-22T18:36:34.876Z,3.23
2018-07-22T18:39:03.364Z,6.80
2018-07-22T18:41:31.711Z,3.30
2018-07-22T18:44:00.228Z,5.47
2018-07-22T18:46:28.463Z,3.10
2018-07-22T18:48:56.920Z,4.67
2018-07-22T18:51:25.248Z,3.33
2018-07-22T18:53:53.849Z,3.67
2018-07-22T18:56:22.577Z,3.87
2018-07-22T18:58:51.480Z,3.30
2018-07-22T19:01:20.250Z,3.80
2018-07-22T19:03:49.025Z,4.03
2018-07-22T19:06:18.084Z,4.70
2018-07-22T19:08:46.804Z,4.00
2018-07-22T19:11:15.320Z,3.57
2018-07-22T19:13:43.990Z,5.57
2018-07-22T19:16:12.879Z,4.47
2018-07-22T19:18:41.401Z,4.37
2018-07-22T19:21:10.061Z,4.70
2018-07-22T19:23:38.973Z,4.50
2018-07-22T19:26:07.556Z,4.50
2018-07-22T19:28:36.284Z,4.50
2018-07-22T19:31:04.890Z,3.77
2018-07-22T19:33:33.525Z,4.33
2018-07-22T19:36:02.242Z,4.13
2018-07-22T19:38:30.968Z,3.43
2018-07-22T19:40:59.500Z,4.17
2018-07-22T19:43:28.429Z,4.40
2018-07-22T19:45:56.963Z,3.97
2018-07-22T19:48:25.267Z,4.27
2018-07-22T19:50:53.890Z,4.10
2018-07-22T19:53:22.801Z,6.67
2018-07-22T19:55:51.397Z,4.17
2018-07-22T19:58:20.397Z,3.30
2018-07-22T20:00:49.438Z,3.47
2018-07-22T20:03:18.278Z,4.80
2018-07-22T20:05:46.915Z,4.20
2018-07-22T20:08:15.762Z,4.00
2018-07-22T20:10:45.025Z,3.90
2018-07-22T20:13:13.977Z,3.70
2018-07-22T20:15:42.849Z,4.33
2018-07-22T20:18:11.268Z,4.50
2018-07-22T20:20:39.988Z,4.33
2018-07-22T20:23:08.997Z,4.13
2018-07-22T20:25:37.885Z,5.00
2018-07-22T20:28:06.825Z,3.87
2018-07-22T20:30:35.796Z,4.17
2018-07-22T20:33:04.996Z,4.10
2018-07-22T20:35:34.122Z,4.30
2018-07-22T20:38:03.073Z,4.30
2018-07-22T20:40:31.722Z,4.40
2018-07-22T20:43:00.905Z,4.17
2018-07-22T20:45:29.690Z,4.00
2018-07-22T20:47:58.072Z,4.17
2018-07-22T20:50:26.503Z,4.30
2018-07-22T20:52:54.938Z,3.67
2018-07-22T20:55:24.424Z,4.23
2018-07-22T20:57:53.525Z,4.07
2018-07-22T21:00:22.528Z,3.60
2018-07-22T21:02:50.995Z,3.70
2018-07-22T21:05:19.681Z,5.27
2018-07-22T21:07:49.523Z,4.43
2018-07-22T21:10:17.959Z,4.43
2018-07-22T21:12:57.968Z,3.70
2018-07-22T21:15:26.933Z,4.57
2018-07-22T21:17:56.683Z,4.00
2018-07-22T21:20:25.408Z,4.60
2018-07-22T21:22:54.412Z,5.50
2018-07-22T21:25:23.679Z,5.00
2018-07-22T21:27:52.371Z,5.30
2018-07-22T21:30:20.896Z,5.20
2018-07-22T21:32:49.892Z,4.70
2018-07-22T21:35:19.036Z,4.50
2018-07-22T21:37:48.151Z,4.63
2018-07-22T21:40:17.258Z,5.03
2018-07-22T21:42:46.136Z,6.00
2018-07-22T21:45:15.256Z,6.70
2018-07-22T21:47:43.976Z,4.93
2018-07-22T21:50:13.162Z,5.77
2018-07-22T21:52:42.556Z,6.23
2018-07-22T21:55:11.114Z,5.70
2018-07-22T21:57:40.001Z,4.60
2018-07-22T22:00:33.247Z,5.33
2018-07-22T22:03:03.983Z,5.20
2018-07-22T22:05:32.967Z,5.53
2018-07-22T22:08:01.886Z,6.00
2018-07-22T22:10:31.095Z,5.50
2018-07-22T22:12:59.927Z,5.10
2018-07-22T22:15:29.927Z,6.00
2018-07-22T22:17:59.887Z,5.40
2018-07-22T22:20:29.253Z,6.57
2018-07-22T22:22:58.679Z,6.13
2018-07-22T22:25:27.909Z,5.77
2018-07-22T22:27:56.952Z,5.63
2018-07-22T22:30:26.382Z,5.70
2018-07-22T22:32:55.578Z,5.30
2018-07-22T22:35:24.446Z,5.33
2018-07-22T22:37:53.207Z,5.60
2018-07-22T22:40:22.231Z,5.77
2018-07-22T22:42:51.363Z,5.60
2018-07-22T22:45:20.058Z,6.20
2018-07-22T22:47:48.465Z,5.77
2018-07-22T22:50:16.783Z,6.60
2018-07-22T22:52:45.674Z,6.30
2018-07-22T22:55:14.596Z,5.63
2018-07-22T22:58:52.505Z,6.03
2018-07-22T23:01:21.491Z,5.53
2018-07-22T23:03:50.483Z,5.83
2018-07-22T23:06:19.747Z,6.23
2018-07-22T23:08:48.955Z,5.53
2018-07-22T23:11:17.685Z,5.33
2018-07-22T23:13:46.518Z,5.70
2018-07-22T23:16:15.468Z,5.20
2018-07-22T23:18:44.587Z,5.63
2018-07-22T23:21:13.774Z,5.37
2018-07-22T23:23:42.927Z,5.40
2018-07-22T23:26:11.904Z,5.10
2018-07-22T23:28:40.997Z,5.50
2018-07-22T23:31:10.277Z,5.97
2018-07-22T23:33:39.289Z,5.33
2018-07-22T23:36:08.134Z,5.20
2018-07-22T23:38:37.197Z,5.30
2018-07-22T23:41:06.380Z,5.57
2018-07-22T23:43:35.386Z,5.70
2018-07-22T23:46:04.373Z,5.50
2018-07-22T23:48:33.922Z,5.50
2018-07-22T23:51:02.627Z,6.53
2018-07-22T23:53:31.663Z,5.80
2018-07-22T23:56:00.882Z,5.50
2018-07-22T23:58:30.227Z,5.73
